createdAt,value
2018-03-11T00:00:46.603Z,70.50
2018-03-11T00:02:07.591Z,70.88
2018-03-11T00:02:46.570Z,70.59
2018-03-11T00:04:07.560Z,70.31
2018-03-11T00:04:46.541Z,69.65
2018-03-11T00:05:46.528Z,70.03
2018-03-11T00:07:07.521Z,69.84
2018-03-11T00:07:46.507Z,70.03
2018-03-11T00:09:07.499Z,69.65
2018-03-11T00:09:46.480Z,70.21
2018-03-11T00:10:46.460Z,70.50
2018-03-11T00:12:07.458Z,70.03
2018-03-11T00:12:46.438Z,70.40
2018-03-11T00:14:07.427Z,69.55
2018-03-11T00:14:46.410Z,69.46
2018-03-11T00:15:46.403Z,69.65
2018-03-11T00:17:07.393Z,69.27
2018-03-11T00:17:46.375Z,69.27
2018-03-11T00:19:07.364Z,68.83
2018-03-11T00:19:46.349Z,67.97
2018-03-11T00:20:46.334Z,67.97
2018-03-11T00:22:07.329Z,67.97
2018-03-11T00:22:46.301Z,68.07
2018-03-11T00:24:07.294Z,67.88
2018-03-11T00:24:46.277Z,67.59
2018-03-11T00:25:46.264Z,67.79
2018-03-11T00:27:07.253Z,67.40
2018-03-11T00:27:46.238Z,67.79
2018-03-11T00:29:07.511Z,67.59
2018-03-11T00:29:46.210Z,67.31
2018-03-11T00:30:46.192Z,68.35
2018-03-11T00:32:07.185Z,68.35
2018-03-11T00:32:46.168Z,67.88
2018-03-11T00:34:07.157Z,67.69
2018-03-11T00:34:46.163Z,67.88
2018-03-11T00:35:46.134Z,68.07
2018-03-11T00:37:07.119Z,68.35
2018-03-11T00:37:46.104Z,68.35
2018-03-11T00:39:07.096Z,68.73
2018-03-11T00:39:46.081Z,69.02
2018-03-11T00:40:46.069Z,68.83
2018-03-11T00:42:07.053Z,69.02
2018-03-11T00:42:46.034Z,69.02
2018-03-11T00:44:07.019Z,68.92
2018-03-11T00:44:46.004Z,69.11
2018-03-11T00:45:46.028Z,68.83
2018-03-11T00:47:06.983Z,69.21
2018-03-11T00:47:45.972Z,69.11
2018-03-11T00:49:06.961Z,69.02
2018-03-11T00:49:45.938Z,69.49
2018-03-11T00:50:45.925Z,69.30
2018-03-11T00:52:06.910Z,69.02
2018-03-11T00:52:45.898Z,68.16
2018-03-11T00:54:06.890Z,67.97
2018-03-11T00:54:45.871Z,68.07
2018-03-11T00:55:45.856Z,68.07
2018-03-11T00:57:06.853Z,68.44
2018-03-11T00:57:45.833Z,69.02
2018-03-11T00:59:06.825Z,69.59
2018-03-11T00:59:45.808Z,70.06
2018-03-11T01:00:45.797Z,70.15
2018-03-11T01:02:06.783Z,69.68
2018-03-11T01:02:45.768Z,70.44
2018-03-11T01:04:06.762Z,69.78
2018-03-11T01:04:45.739Z,70.63
2018-03-11T01:05:45.724Z,70.82
2018-03-11T01:07:06.716Z,69.96
2018-03-11T01:07:45.699Z,70.35
2018-03-11T01:09:06.682Z,70.25
2018-03-11T01:09:45.671Z,70.25
2018-03-11T01:10:45.667Z,70.12
2018-03-11T01:12:06.646Z,69.74
2018-03-11T01:12:45.628Z,69.68
2018-03-11T01:14:06.624Z,69.59
2018-03-11T01:14:45.605Z,69.68
2018-03-11T01:15:45.591Z,68.92
2018-03-11T01:17:06.679Z,68.83
2018-03-11T01:17:45.561Z,69.11
2018-03-11T01:19:06.552Z,69.02
2018-03-11T01:19:45.535Z,69.21
2018-03-11T01:20:45.522Z,68.07
2018-03-11T01:22:06.573Z,67.97
2018-03-11T01:22:45.496Z,68.26
2018-03-11T01:24:06.492Z,68.16
2018-03-11T01:24:45.471Z,68.44
2018-03-11T01:25:45.455Z,68.73
2018-03-11T01:27:06.446Z,68.64
2018-03-11T01:27:45.426Z,67.88
2018-03-11T01:29:06.456Z,68.26
2018-03-11T01:29:45.401Z,68.07
2018-03-11T01:30:45.388Z,68.54
2018-03-11T01:32:06.379Z,68.07
2018-03-11T01:32:45.358Z,69.02
2018-03-11T01:34:06.422Z,68.92
2018-03-11T01:34:45.335Z,68.92
2018-03-11T01:35:45.320Z,68.54
2018-03-11T01:37:06.311Z,69.02
2018-03-11T01:37:45.300Z,69.11
2018-03-11T01:39:06.370Z,69.11
2018-03-11T01:39:45.273Z,68.64
2018-03-11T01:40:45.256Z,69.21
2018-03-11T01:42:06.242Z,69.21
2018-03-11T01:42:45.231Z,68.83
2018-03-11T01:44:06.220Z,68.92
2018-03-11T01:44:45.202Z,69.11
2018-03-11T01:45:45.191Z,69.02
2018-03-11T01:47:06.178Z,69.02
2018-03-11T01:47:45.160Z,69.21
2018-03-11T01:49:06.151Z,69.11
2018-03-11T01:49:45.140Z,69.02
2018-03-11T01:50:45.117Z,69.21
2018-03-11T01:52:06.113Z,69.40
2018-03-11T01:52:45.094Z,69.49
2018-03-11T01:54:06.088Z,69.59
2018-03-11T01:54:45.069Z,69.59
2018-03-11T01:55:45.053Z,69.87
2018-03-11T01:57:06.048Z,69.59
2018-03-11T01:57:45.027Z,70.06
2018-03-11T01:59:06.022Z,70.25
2018-03-11T01:59:44.994Z,70.15
2018-03-11T02:00:44.985Z,70.12
2018-03-11T02:02:05.982Z,70.59
2018-03-11T02:02:44.962Z,70.59
2018-03-11T02:04:05.950Z,70.59
2018-03-11T02:04:44.945Z,71.17
2018-03-11T02:05:44.926Z,71.07
2018-03-11T02:07:05.909Z,71.26
2018-03-11T02:07:44.896Z,70.88
2018-03-11T02:09:05.893Z,71.36
2018-03-11T02:09:44.868Z,71.45
2018-03-11T02:10:44.855Z,71.36
2018-03-11T02:12:05.840Z,70.88
2018-03-11T02:12:44.831Z,70.98
2018-03-11T02:14:05.827Z,70.98
2018-03-11T02:14:44.803Z,71.17
2018-03-11T02:15:44.788Z,71.26
2018-03-11T02:17:05.781Z,71.07
2018-03-11T02:17:44.762Z,70.78
2018-03-11T02:19:05.754Z,70.78
2018-03-11T02:19:44.736Z,71.07
2018-03-11T02:20:44.726Z,71.55
2018-03-11T02:22:05.711Z,71.92
2018-03-11T02:22:44.712Z,71.83
2018-03-11T02:24:05.687Z,71.92
2018-03-11T02:24:44.671Z,71.45
2018-03-11T02:25:44.652Z,71.45
2018-03-11T02:27:05.648Z,72.11
2018-03-11T02:27:44.628Z,72.40
2018-03-11T02:29:05.622Z,72.30
2018-03-11T02:29:44.599Z,72.02
2018-03-11T02:30:44.588Z,72.11
2018-03-11T02:32:05.580Z,72.49
2018-03-11T02:32:44.564Z,71.73
2018-03-11T02:34:05.552Z,71.36
2018-03-11T02:34:44.533Z,70.59
2018-03-11T02:35:44.519Z,70.35
2018-03-11T02:37:05.507Z,70.06
2018-03-11T02:37:44.492Z,70.63
2018-03-11T02:39:05.482Z,69.78
2018-03-11T02:39:44.472Z,69.68
2018-03-11T02:40:44.449Z,69.78
2018-03-11T02:42:05.447Z,69.49
2018-03-11T02:42:44.426Z,69.11
2018-03-11T02:44:05.424Z,68.92
2018-03-11T02:44:44.401Z,69.30
2018-03-11T02:45:44.391Z,69.59
2018-03-11T02:47:05.377Z,69.21
2018-03-11T02:47:44.367Z,69.40
2018-03-11T02:49:05.354Z,69.68
2018-03-11T02:49:44.338Z,69.59
2018-03-11T02:50:44.323Z,69.59
2018-03-11T02:52:05.306Z,70.03
2018-03-11T02:52:44.289Z,69.84
2018-03-11T02:54:05.282Z,70.50
2018-03-11T02:54:44.267Z,70.69
2018-03-11T02:55:44.254Z,70.50
2018-03-11T02:57:05.244Z,69.74
2018-03-11T02:57:44.221Z,70.21
2018-03-11T02:59:05.213Z,70.50
2018-03-11T02:59:44.195Z,70.50
2018-03-11T03:00:44.187Z,70.78
2018-03-11T03:02:05.175Z,70.40
2018-03-11T03:02:44.164Z,69.93
2018-03-11T03:04:05.145Z,70.69
2018-03-11T03:04:44.140Z,70.98
2018-03-11T03:05:44.122Z,70.69
2018-03-11T03:07:05.112Z,70.69
2018-03-11T03:07:44.093Z,71.26
2018-03-11T03:09:05.082Z,71.07
2018-03-11T03:09:44.085Z,70.88
2018-03-11T03:10:44.053Z,70.69
2018-03-11T03:12:05.042Z,70.40
2018-03-11T03:12:44.024Z,70.69
2018-03-11T03:14:05.010Z,70.50
2018-03-11T03:14:43.993Z,71.17
2018-03-11T03:15:43.984Z,70.98
2018-03-11T03:17:04.975Z,71.07
2018-03-11T03:17:43.956Z,71.45
2018-03-11T03:19:04.945Z,71.73
2018-03-11T03:19:43.931Z,71.55
2018-03-11T03:20:43.910Z,72.30
2018-03-11T03:22:04.906Z,72.21
2018-03-11T03:22:43.887Z,72.21
2018-03-11T03:24:04.882Z,72.11
2018-03-11T03:24:43.869Z,72.78
2018-03-11T03:25:43.852Z,73.16
2018-03-11T03:27:04.836Z,72.97
2018-03-11T03:27:43.821Z,72.97
2018-03-11T03:29:04.814Z,72.88
2018-03-11T03:29:43.795Z,72.78
2018-03-11T03:30:43.820Z,72.59
2018-03-11T03:32:04.771Z,72.78
2018-03-11T03:32:43.751Z,72.97
2018-03-11T03:34:04.748Z,72.30
2018-03-11T03:34:43.727Z,72.49
2018-03-11T03:35:43.715Z,71.92
2018-03-11T03:37:04.706Z,71.73
2018-03-11T03:37:43.686Z,71.73
2018-03-11T03:39:04.678Z,71.55
2018-03-11T03:39:43.663Z,71.45
2018-03-11T03:40:43.650Z,70.98
2018-03-11T03:42:04.640Z,71.17
2018-03-11T03:42:43.618Z,71.07
2018-03-11T03:44:04.614Z,70.98
2018-03-11T03:44:43.596Z,71.64
2018-03-11T03:45:43.581Z,71.55
2018-03-11T03:47:04.567Z,71.36
2018-03-11T03:47:43.551Z,71.55
2018-03-11T03:49:04.543Z,71.45
2018-03-11T03:49:43.533Z,71.45
2018-03-11T03:50:43.508Z,71.26
2018-03-11T03:52:04.506Z,72.11
2018-03-11T03:52:43.483Z,71.73
2018-03-11T03:54:04.478Z,71.83
2018-03-11T03:54:43.466Z,72.02
2018-03-11T03:55:43.452Z,71.45
2018-03-11T03:57:04.436Z,71.55
2018-03-11T03:57:43.417Z,71.36
2018-03-11T03:59:04.407Z,71.45
2018-03-11T03:59:43.387Z,71.83
2018-03-11T04:00:43.373Z,72.30
2018-03-11T04:02:04.368Z,71.92
2018-03-11T04:02:43.358Z,72.40
2018-03-11T04:04:04.340Z,71.92
2018-03-11T04:04:43.326Z,72.40
2018-03-11T04:05:43.320Z,72.40
2018-03-11T04:07:04.304Z,71.92
2018-03-11T04:07:43.282Z,72.49
2018-03-11T04:09:04.274Z,72.40
2018-03-11T04:09:43.262Z,72.59
2018-03-11T04:10:43.247Z,72.30
2018-03-11T04:12:04.235Z,72.59
2018-03-11T04:12:43.219Z,72.59
2018-03-11T04:14:04.207Z,72.30
2018-03-11T04:14:43.188Z,72.59
2018-03-11T04:15:43.177Z,72.49
2018-03-11T04:17:04.165Z,72.88
2018-03-11T04:17:43.152Z,73.07
2018-03-11T04:19:04.140Z,73.16
2018-03-11T04:19:43.122Z,72.97
2018-03-11T04:20:43.114Z,72.88
2018-03-11T04:22:04.098Z,72.78
2018-03-11T04:22:43.085Z,72.68
2018-03-11T04:24:04.078Z,72.11
2018-03-11T04:24:43.060Z,72.30
2018-03-11T04:25:43.046Z,71.73
2018-03-11T04:27:04.029Z,71.64
2018-03-11T04:27:43.012Z,71.17
2018-03-11T04:29:04.003Z,70.44
2018-03-11T04:29:42.989Z,70.63
2018-03-11T04:30:42.982Z,69.87
2018-03-11T04:32:03.966Z,70.06
2018-03-11T04:32:42.954Z,70.73
2018-03-11T04:34:03.939Z,69.96
2018-03-11T04:34:42.921Z,69.96
2018-03-11T04:35:42.912Z,70.31
2018-03-11T04:37:03.901Z,69.93
2018-03-11T04:37:42.879Z,70.06
2018-03-11T04:39:03.869Z,70.31
2018-03-11T04:39:42.851Z,70.03
2018-03-11T04:40:42.843Z,70.12
2018-03-11T04:42:03.834Z,70.69
2018-03-11T04:42:42.813Z,70.69
2018-03-11T04:44:03.808Z,70.88
2018-03-11T04:44:42.790Z,71.55
2018-03-11T04:45:42.776Z,71.55
2018-03-11T04:47:03.763Z,71.55
2018-03-11T04:47:42.768Z,70.88
2018-03-11T04:49:03.746Z,70.88
2018-03-11T04:49:42.723Z,70.82
2018-03-11T04:50:42.707Z,70.82
2018-03-11T04:52:03.697Z,70.73
2018-03-11T04:52:42.683Z,70.35
2018-03-11T04:54:03.674Z,70.44
2018-03-11T04:54:42.657Z,70.06
2018-03-11T04:55:42.637Z,69.68
2018-03-11T04:57:03.630Z,69.68
2018-03-11T04:57:42.616Z,69.68
2018-03-11T04:59:03.602Z,69.49
2018-03-11T04:59:42.588Z,69.59
2018-03-11T05:00:42.577Z,69.40
2018-03-11T05:02:03.564Z,69.30
2018-03-11T05:02:42.547Z,68.92
2018-03-11T05:04:03.540Z,68.73
2018-03-11T05:04:42.513Z,68.35
2018-03-11T05:05:42.508Z,69.11
2018-03-11T05:07:03.496Z,68.07
2018-03-11T05:07:42.489Z,68.01
2018-03-11T05:09:03.477Z,68.07
2018-03-11T05:09:42.456Z,68.19
2018-03-11T05:10:42.440Z,68.44
2018-03-11T05:12:03.428Z,68.48
2018-03-11T05:12:42.419Z,68.26
2018-03-11T05:14:03.405Z,68.10
2018-03-11T05:14:42.387Z,67.91
2018-03-11T05:15:42.376Z,67.53
2018-03-11T05:17:03.364Z,67.44
2018-03-11T05:17:42.348Z,67.72
2018-03-11T05:19:03.334Z,67.63
2018-03-11T05:19:42.315Z,67.34
2018-03-11T05:20:42.305Z,67.15
2018-03-11T05:22:03.304Z,67.44
2018-03-11T05:22:42.281Z,67.44
2018-03-11T05:24:03.274Z,67.82
2018-03-11T05:24:42.252Z,67.34
2018-03-11T05:25:42.245Z,67.53
2018-03-11T05:27:03.251Z,67.72
2018-03-11T05:27:42.219Z,68.10
2018-03-11T05:29:03.203Z,69.02
2018-03-11T05:29:42.218Z,69.49
2018-03-11T05:30:42.176Z,69.59
2018-03-11T05:32:03.166Z,70.25
2018-03-11T05:32:42.167Z,70.06
2018-03-11T05:34:03.137Z,70.35
2018-03-11T05:34:42.126Z,70.54
2018-03-11T05:35:42.109Z,71.39
2018-03-11T05:37:03.103Z,71.11
2018-03-11T05:37:42.082Z,70.92
2018-03-11T05:39:03.068Z,71.20
2018-03-11T05:39:42.056Z,71.11
2018-03-11T05:40:42.040Z,70.92
2018-03-11T05:42:03.034Z,71.73
2018-03-11T05:42:42.008Z,71.55
2018-03-11T05:44:03.006Z,71.45
2018-03-11T05:44:41.983Z,71.45
2018-03-11T05:45:41.976Z,71.36
2018-03-11T05:47:02.967Z,71.55
2018-03-11T05:47:41.952Z,71.36
2018-03-11T05:49:02.937Z,71.73
2018-03-11T05:49:41.926Z,72.06
2018-03-11T05:50:41.911Z,71.67
2018-03-11T05:52:02.905Z,72.44
2018-03-11T05:52:41.891Z,72.44
2018-03-11T05:54:02.875Z,72.15
2018-03-11T05:54:41.852Z,72.15
2018-03-11T05:55:41.841Z,71.77
2018-03-11T05:57:02.836Z,71.30
2018-03-11T05:57:41.808Z,71.39
2018-03-11T05:59:02.799Z,72.06
2018-03-11T05:59:41.822Z,71.92
2018-03-11T06:00:41.772Z,71.83
2018-03-11T06:02:02.767Z,71.86
2018-03-11T06:02:41.747Z,71.96
2018-03-11T06:04:02.745Z,71.96
2018-03-11T06:04:41.719Z,72.30
2018-03-11T06:05:41.712Z,72.06
2018-03-11T06:07:02.696Z,71.73
2018-03-11T06:07:41.682Z,71.55
2018-03-11T06:09:02.673Z,71.45
2018-03-11T06:09:41.657Z,71.67
2018-03-11T06:10:41.644Z,72.06
2018-03-11T06:12:02.640Z,72.25
2018-03-11T06:12:41.617Z,71.96
2018-03-11T06:14:02.605Z,71.96
2018-03-11T06:14:41.583Z,71.58
2018-03-11T06:15:41.583Z,70.54
2018-03-11T06:17:02.566Z,70.73
2018-03-11T06:17:41.546Z,70.54
2018-03-11T06:19:02.542Z,69.87
2018-03-11T06:19:41.520Z,69.49
2018-03-11T06:20:41.506Z,69.30
2018-03-11T06:22:02.497Z,69.30
2018-03-11T06:22:41.485Z,69.11
2018-03-11T06:24:02.470Z,68.58
2018-03-11T06:24:41.454Z,68.67
2018-03-11T06:25:41.446Z,68.48
2018-03-11T06:27:02.437Z,68.58
2018-03-11T06:27:41.419Z,68.10
2018-03-11T06:29:02.425Z,68.58
2018-03-11T06:29:41.392Z,67.72
2018-03-11T06:30:41.378Z,67.63
2018-03-11T06:32:02.371Z,67.72
2018-03-11T06:32:41.350Z,67.72
2018-03-11T06:34:02.342Z,67.91
2018-03-11T06:34:41.325Z,67.72
2018-03-11T06:35:41.306Z,67.72
2018-03-11T06:37:02.306Z,67.91
2018-03-11T06:37:41.284Z,67.91
2018-03-11T06:39:02.274Z,67.72
2018-03-11T06:39:41.255Z,67.53
2018-03-11T06:40:41.244Z,67.72
2018-03-11T06:42:02.239Z,67.72
2018-03-11T06:42:41.216Z,67.63
2018-03-11T06:44:02.213Z,68.10
2018-03-11T06:44:41.192Z,67.72
2018-03-11T06:45:41.178Z,67.63
2018-03-11T06:47:02.169Z,67.44
2018-03-11T06:47:41.153Z,67.53
2018-03-11T06:49:02.147Z,67.91
2018-03-11T06:49:41.128Z,68.58
2018-03-11T06:50:41.111Z,69.05
2018-03-11T06:52:02.103Z,69.34
2018-03-11T06:52:41.087Z,69.43
2018-03-11T06:54:02.081Z,70.00
2018-03-11T06:54:41.059Z,69.71
2018-03-11T06:55:41.056Z,69.91
2018-03-11T06:57:02.042Z,69.81
2018-03-11T06:57:41.026Z,69.62
2018-03-11T06:59:02.017Z,70.19
2018-03-11T06:59:40.998Z,70.67
2018-03-11T07:00:40.989Z,69.71
2018-03-11T07:02:01.978Z,70.67
2018-03-11T07:02:40.961Z,69.91
2018-03-11T07:04:01.949Z,69.71
2018-03-11T07:04:40.940Z,69.81
2018-03-11T07:05:40.919Z,69.43
2018-03-11T07:07:01.912Z,69.62
2018-03-11T07:07:40.889Z,69.71
2018-03-11T07:09:01.878Z,69.91
2018-03-11T07:09:40.869Z,69.81
2018-03-11T07:10:40.856Z,69.53
2018-03-11T07:12:01.854Z,69.24
2018-03-11T07:12:40.828Z,68.77
2018-03-11T07:14:01.823Z,68.10
2018-03-11T07:14:40.805Z,68.48
2018-03-11T07:15:40.797Z,68.10
2018-03-11T07:17:01.781Z,68.29
2018-03-11T07:17:40.765Z,68.48
2018-03-11T07:19:01.753Z,67.91
2018-03-11T07:19:40.740Z,67.38
2018-03-11T07:20:40.727Z,67.53
2018-03-11T07:22:01.716Z,68.29
2018-03-11T07:22:40.702Z,67.94
2018-03-11T07:24:01.686Z,68.33
2018-03-11T07:24:40.676Z,68.48
2018-03-11T07:25:40.669Z,68.61
2018-03-11T07:27:01.652Z,68.33
2018-03-11T07:27:40.640Z,68.52
2018-03-11T07:29:01.633Z,68.13
2018-03-11T07:29:40.609Z,68.04
2018-03-11T07:30:40.600Z,68.39
2018-03-11T07:32:01.588Z,68.33
2018-03-11T07:32:40.575Z,68.10
2018-03-11T07:34:01.567Z,68.42
2018-03-11T07:34:40.542Z,68.29
2018-03-11T07:35:40.538Z,68.04
2018-03-11T07:37:01.528Z,68.04
2018-03-11T07:37:40.503Z,67.76
2018-03-11T07:39:01.500Z,67.66
2018-03-11T07:39:40.479Z,67.85
2018-03-11T07:40:40.469Z,67.57
2018-03-11T07:42:01.462Z,67.38
2018-03-11T07:42:40.446Z,67.85
2018-03-11T07:44:01.435Z,67.66
2018-03-11T07:44:40.415Z,67.47
2018-03-11T07:45:40.411Z,68.04
2018-03-11T07:47:01.397Z,67.57
2018-03-11T07:47:40.382Z,67.66
2018-03-11T07:49:01.374Z,67.76
2018-03-11T07:49:40.363Z,67.76
2018-03-11T07:50:40.346Z,67.76
2018-03-11T07:52:01.338Z,68.04
2018-03-11T07:52:40.326Z,67.85
2018-03-11T07:54:01.310Z,67.47
2018-03-11T07:54:40.340Z,67.66
2018-03-11T07:55:40.283Z,67.57
2018-03-11T07:57:01.270Z,67.38
2018-03-11T07:57:40.255Z,67.57
2018-03-11T07:59:01.244Z,67.50
2018-03-11T07:59:40.233Z,67.57
2018-03-11T08:00:40.219Z,66.80
2018-03-11T08:02:01.212Z,66.42
2018-03-11T08:02:40.198Z,67.13
2018-03-11T08:04:01.188Z,66.65
2018-03-11T08:04:40.171Z,67.03
2018-03-11T08:05:40.158Z,66.65
2018-03-11T08:07:01.148Z,67.03
2018-03-11T08:07:40.135Z,65.60
2018-03-11T08:09:01.139Z,65.51
2018-03-11T08:09:40.106Z,65.51
2018-03-11T08:10:40.092Z,65.89
2018-03-11T08:12:01.083Z,65.89
2018-03-11T08:12:40.100Z,65.70
2018-03-11T08:14:01.058Z,65.89
2018-03-11T08:14:40.046Z,65.22
2018-03-11T08:15:40.030Z,65.70
2018-03-11T08:17:01.027Z,65.35
2018-03-11T08:17:40.011Z,64.40
2018-03-11T08:19:01.001Z,64.78
2018-03-11T08:19:39.984Z,64.11
2018-03-11T08:20:39.976Z,63.73
2018-03-11T08:22:00.966Z,63.64
2018-03-11T08:22:39.949Z,63.64
2018-03-11T08:24:00.942Z,63.17
2018-03-11T08:24:39.922Z,63.17
2018-03-11T08:25:39.912Z,63.07
2018-03-11T08:27:00.899Z,62.12
2018-03-11T08:27:39.890Z,61.93
2018-03-11T08:29:00.878Z,61.26
2018-03-11T08:29:39.862Z,61.35
2018-03-11T08:30:39.862Z,61.55
2018-03-11T08:32:00.846Z,61.35
2018-03-11T08:32:39.840Z,61.93
2018-03-11T08:34:00.819Z,61.55
2018-03-11T08:34:39.809Z,61.26
2018-03-11T08:35:39.811Z,61.26
2018-03-11T08:37:00.790Z,61.96
2018-03-11T08:37:39.771Z,61.77
2018-03-11T08:39:00.767Z,61.29
2018-03-11T08:39:39.746Z,61.29
2018-03-11T08:40:39.734Z,60.91
2018-03-11T08:42:00.735Z,60.82
2018-03-11T08:42:39.716Z,60.91
2018-03-11T08:44:00.700Z,60.63
2018-03-11T08:44:39.689Z,59.96
2018-03-11T08:45:39.673Z,59.48
2018-03-11T08:47:00.668Z,59.39
2018-03-11T08:47:39.657Z,60.15
2018-03-11T08:49:00.647Z,60.24
2018-03-11T08:49:39.636Z,59.77
2018-03-11T08:50:39.613Z,60.05
2018-03-11T08:52:00.608Z,60.15
2018-03-11T08:52:39.594Z,60.15
2018-03-11T08:54:00.591Z,60.82
2018-03-11T08:54:39.569Z,61.29
2018-03-11T08:55:39.560Z,60.75
2018-03-11T08:57:00.551Z,60.37
2018-03-11T08:57:39.539Z,60.27
2018-03-11T08:59:00.533Z,60.37
2018-03-11T08:59:39.513Z,60.66
2018-03-11T09:00:39.503Z,60.94
2018-03-11T09:02:00.497Z,60.85
2018-03-11T09:02:39.482Z,60.94
2018-03-11T09:04:00.475Z,60.27
2018-03-11T09:04:39.461Z,60.08
2018-03-11T09:05:39.442Z,59.80
2018-03-11T09:07:00.440Z,58.84
2018-03-11T09:07:39.420Z,58.94
2018-03-11T09:09:00.417Z,58.94
2018-03-11T09:09:39.397Z,59.13
2018-03-11T09:10:39.388Z,58.94
2018-03-11T09:12:00.388Z,58.47
2018-03-11T09:12:39.371Z,58.18
2018-03-11T09:14:00.362Z,57.73
2018-03-11T09:14:39.348Z,56.49
2018-03-11T09:15:39.335Z,56.49
2018-03-11T09:17:00.326Z,56.49
2018-03-11T09:17:39.312Z,56.78
2018-03-11T09:19:00.303Z,56.78
2018-03-11T09:19:39.294Z,56.21
2018-03-11T09:20:39.278Z,56.30
2018-03-11T09:22:00.274Z,56.21
2018-03-11T09:22:39.258Z,55.73
2018-03-11T09:24:00.249Z,55.73
2018-03-11T09:24:39.236Z,55.16
2018-03-11T09:25:39.226Z,55.44
2018-03-11T09:27:00.220Z,55.76
2018-03-11T09:27:39.198Z,55.85
2018-03-11T09:29:00.199Z,55.28
2018-03-11T09:29:39.180Z,55.47
2018-03-11T09:30:39.175Z,55.19
2018-03-11T09:32:00.164Z,55.28
2018-03-11T09:32:39.148Z,54.33
2018-03-11T09:34:00.142Z,54.49
2018-03-11T09:34:39.121Z,54.59
2018-03-11T09:35:39.115Z,54.68
2018-03-11T09:37:00.112Z,55.26
2018-03-11T09:37:39.100Z,54.78
2018-03-11T09:39:00.090Z,54.59
2018-03-11T09:39:39.075Z,54.88
2018-03-11T09:40:39.066Z,54.43
2018-03-11T09:42:00.055Z,54.33
2018-03-11T09:42:39.045Z,54.33
2018-03-11T09:44:00.035Z,54.71
2018-03-11T09:44:39.025Z,54.61
2018-03-11T09:45:39.006Z,54.61
2018-03-11T09:47:00.007Z,54.61
2018-03-11T09:47:38.984Z,54.80
2018-03-11T09:48:59.980Z,55.00
2018-03-11T09:49:38.965Z,54.52
2018-03-11T09:50:38.952Z,55.28
2018-03-11T09:51:59.950Z,54.90
2018-03-11T09:52:38.932Z,54.24
2018-03-11T09:53:59.930Z,53.85
2018-03-11T09:54:38.912Z,54.43
2018-03-11T09:55:38.898Z,54.80
2018-03-11T09:56:59.924Z,55.09
2018-03-11T09:57:38.881Z,55.19
2018-03-11T09:58:59.878Z,55.21
2018-03-11T09:59:38.861Z,54.33
2018-03-11T10:00:38.848Z,54.43
2018-03-11T10:01:59.843Z,54.33
2018-03-11T10:02:38.831Z,54.07
2018-03-11T10:03:59.824Z,54.45
2018-03-11T10:04:38.805Z,54.45
2018-03-11T10:05:38.795Z,54.45
2018-03-11T10:06:59.795Z,54.55
2018-03-11T10:07:38.780Z,54.93
2018-03-11T10:08:59.771Z,55.02
2018-03-11T10:09:38.757Z,53.12
2018-03-11T10:10:38.799Z,52.73
2018-03-11T10:11:59.736Z,52.48
2018-03-11T10:12:38.724Z,52.79
2018-03-11T10:13:59.720Z,52.79
2018-03-11T10:14:38.699Z,52.59
2018-03-11T10:15:38.703Z,51.14
2018-03-11T10:16:59.686Z,51.54
2018-03-11T10:17:38.676Z,50.88
2018-03-11T10:18:59.670Z,50.62
2018-03-11T10:19:38.655Z,49.76
2018-03-11T10:20:38.649Z,49.98
2018-03-11T10:21:59.637Z,48.73
2018-03-11T10:22:38.623Z,47.97
2018-03-11T10:23:59.622Z,48.38
2018-03-11T10:24:38.601Z,47.80
2018-03-11T10:25:38.598Z,47.42
2018-03-11T10:26:59.593Z,46.39
2018-03-11T10:27:38.579Z,45.24
2018-03-11T10:28:59.577Z,45.43
2018-03-11T10:29:38.562Z,44.67
2018-03-11T10:30:38.549Z,44.95
2018-03-11T10:31:59.548Z,45.53
2018-03-11T10:32:38.531Z,45.17
2018-03-11T10:33:59.528Z,44.59
2018-03-11T10:34:38.514Z,44.88
2018-03-11T10:35:38.505Z,44.69
2018-03-11T10:36:59.500Z,44.95
2018-03-11T10:37:38.486Z,45.05
2018-03-11T10:38:59.481Z,45.15
2018-03-11T10:39:38.473Z,44.67
2018-03-11T10:40:38.460Z,44.55
2018-03-11T10:41:59.459Z,46.08
2018-03-11T10:42:38.448Z,46.37
2018-03-11T10:43:59.447Z,46.84
2018-03-11T10:44:38.426Z,46.58
2018-03-11T10:45:38.422Z,46.39
2018-03-11T10:46:59.415Z,45.17
2018-03-11T10:47:38.404Z,44.52
2018-03-11T10:48:59.402Z,44.06
2018-03-11T10:49:38.389Z,43.97
2018-03-11T10:50:38.374Z,42.84
2018-03-11T10:51:59.370Z,41.61
2018-03-11T10:52:38.364Z,40.77
2018-03-11T10:53:59.366Z,40.47
2018-03-11T10:54:38.346Z,40.64
2018-03-11T10:55:38.377Z,40.25
2018-03-11T10:56:59.341Z,41.09
2018-03-11T10:57:38.326Z,42.44
2018-03-11T10:58:59.322Z,42.24
2018-03-11T10:59:38.308Z,42.63
2018-03-11T11:00:38.297Z,42.46
2018-03-11T11:01:59.299Z,41.19
2018-03-11T11:02:38.285Z,42.11
2018-03-11T11:03:59.914Z,42.49
2018-03-11T11:04:38.269Z,43.54
2018-03-11T11:05:38.265Z,43.73
2018-03-11T11:06:59.266Z,44.12
2018-03-11T11:07:38.247Z,44.40
2018-03-11T11:08:59.252Z,44.48
2018-03-11T11:09:38.240Z,44.86
2018-03-11T11:10:38.228Z,45.91
2018-03-11T11:11:59.226Z,46.30
2018-03-11T11:12:38.211Z,46.10
2018-03-11T11:13:59.208Z,46.39
2018-03-11T11:14:38.194Z,44.57
2018-03-11T11:15:38.184Z,43.62
2018-03-11T11:16:59.184Z,44.00
2018-03-11T11:17:38.169Z,43.71
2018-03-11T11:18:59.169Z,43.71
2018-03-11T11:19:38.155Z,43.90
2018-03-11T11:20:38.150Z,43.43
2018-03-11T11:21:59.148Z,42.94
2018-03-11T11:22:38.136Z,42.94
2018-03-11T11:23:59.135Z,44.19
2018-03-11T11:24:38.116Z,45.34
2018-03-11T11:25:38.157Z,44.95
2018-03-11T11:26:59.105Z,45.53
2018-03-11T11:27:38.091Z,46.01
2018-03-11T11:28:59.093Z,46.77
2018-03-11T11:29:38.080Z,45.24
2018-03-11T11:30:38.071Z,45.72
2018-03-11T11:31:59.069Z,46.01
2018-03-11T11:32:38.054Z,45.15
2018-03-11T11:33:59.062Z,44.57
2018-03-11T11:34:38.037Z,43.62
2018-03-11T11:35:38.030Z,43.71
2018-03-11T11:36:59.032Z,43.33
2018-03-11T11:37:38.013Z,43.71
2018-03-11T11:38:59.008Z,43.83
2018-03-11T11:39:37.994Z,43.16
2018-03-11T11:40:37.992Z,42.77
2018-03-11T11:41:58.990Z,41.53
2018-03-11T11:42:37.971Z,41.65
2018-03-11T11:43:58.964Z,41.74
2018-03-11T11:44:37.958Z,41.65
2018-03-11T11:45:37.947Z,41.55
2018-03-11T11:46:58.943Z,41.74
2018-03-11T11:47:37.935Z,41.55
2018-03-11T11:48:58.932Z,41.46
2018-03-11T11:49:37.917Z,41.00
2018-03-11T11:50:37.909Z,40.54
2018-03-11T11:51:58.908Z,39.12
2018-03-11T11:52:37.899Z,39.31
2018-03-11T11:53:58.894Z,39.20
2018-03-11T11:54:37.877Z,39.01
2018-03-11T11:55:37.868Z,38.93
2018-03-11T11:56:58.866Z,38.74
2018-03-11T11:57:37.855Z,38.62
2018-03-11T11:58:58.855Z,38.62
2018-03-11T11:59:37.840Z,39.29
2018-03-11T12:00:37.834Z,39.01
2018-03-11T12:01:58.837Z,39.20
2018-03-11T12:02:37.820Z,39.20
2018-03-11T12:03:58.817Z,39.58
2018-03-11T12:04:37.807Z,39.29
2018-03-11T12:05:37.797Z,39.56
2018-03-11T12:06:58.800Z,39.65
2018-03-11T12:07:37.786Z,40.42
2018-03-11T12:08:58.784Z,40.04
2018-03-11T12:09:37.769Z,40.04
2018-03-11T12:10:37.756Z,40.35
2018-03-11T12:11:58.759Z,40.25
2018-03-11T12:12:37.746Z,39.41
2018-03-11T12:13:58.760Z,39.03
2018-03-11T12:14:37.731Z,38.54
2018-03-11T12:15:37.722Z,38.64
2018-03-11T12:16:58.725Z,38.54
2018-03-11T12:17:37.714Z,38.35
2018-03-11T12:18:58.709Z,38.16
2018-03-11T12:19:37.699Z,37.60
2018-03-11T12:20:37.698Z,37.41
2018-03-11T12:21:58.695Z,37.49
2018-03-11T12:22:37.717Z,37.78
2018-03-11T12:23:58.679Z,38.45
2018-03-11T12:24:37.668Z,39.03
2018-03-11T12:25:37.655Z,38.74
2018-03-11T12:26:58.651Z,38.62
2018-03-11T12:27:37.643Z,38.91
2018-03-11T12:28:58.645Z,39.77
2018-03-11T12:29:37.636Z,40.06
2018-03-11T12:30:37.624Z,40.44
2018-03-11T12:31:58.623Z,40.33
2018-03-11T12:32:37.608Z,42.32
2018-03-11T12:33:58.608Z,42.99
2018-03-11T12:34:37.592Z,43.73
2018-03-11T12:35:37.593Z,44.12
2018-03-11T12:36:58.586Z,44.40
2018-03-11T12:37:37.573Z,44.69
2018-03-11T12:38:58.572Z,44.98
2018-03-11T12:39:37.557Z,44.59
2018-03-11T12:40:37.549Z,44.50
2018-03-11T12:41:58.551Z,44.59
2018-03-11T12:42:37.536Z,44.31
2018-03-11T12:43:58.537Z,44.50
2018-03-11T12:44:37.523Z,45.48
2018-03-11T12:45:37.517Z,45.57
2018-03-11T12:46:58.514Z,45.00
2018-03-11T12:47:37.500Z,44.54
2018-03-11T12:48:58.507Z,44.06
2018-03-11T12:49:37.480Z,43.97
2018-03-11T12:50:37.476Z,43.49
2018-03-11T12:51:58.475Z,43.30
2018-03-11T12:52:37.491Z,42.82